首页
METAR-TAF:

METAR-TAF

机场 :

Ponta Delgada, 亚速尔群岛, 葡萄牙

纬度: 37-44N, 经度: 025-42W, 海拔: 71米

当前天气观测

该预报发布于34分钟前的21:30 UTC
风速2节,风向多变
温度 15°C
湿度 72%
气压 1034 hPa
能见度10公里或以上
少量云层高于2000英尺
多云层高于2800英尺

METAR: LPPD 172130Z VRB02KT 9999 FEW020 BKN028 15/10 Q1034

时间: 21:04 (22:04 UTC)

预报

该预报发布于5小时和4分钟前的17:00 UTC
预报有效从17日的 18点(UTC)到 18日的 18点(UTC)
风速5节,风向多变
能见度10公里或以上
少量云层高于1500英尺
多云层高于3000英尺
几率 30% :
短暂存在
从 17日的 18点(UTC)到 17日的 21点(UTC)
能見度: 6000
散云层高于600英尺
多云层高于1200英尺
小雨

TAF: LPPD 171700Z 1718/1818 VRB05KT 9999 FEW015 BKN030 PROB30 TEMPO 1718/1721 6000 -RA SCT006 BKN012

超过4000个机场的气象观测和天气预报(METAR&TAF报告)。

可查询的气象台以黄色和红色小点在地图上表示。

将鼠标移到小点上方,可查看气象台名称。

然后点击查看天气观测和预报。

如需切换地图:点击带黑十字的绿色按钮放大地图;点击带横线的绿色按钮缩小地图;或者点击绿色箭头查看邻近地区的地图。


METAR-TAF: